sensor_id;sensor_type;location;lat;lon;timestamp;P1;durP1;ratioP1;P2;durP2;ratioP2
22557;SDS011;11445;53.816;8.902;2022-12-20T00:01:31;15.73;;;10.57;;
22557;SDS011;11445;53.816;8.902;2022-12-20T00:04:00;17.92;;;9.77;;
22557;SDS011;11445;53.816;8.902;2022-12-20T00:06:29;20.65;;;10.60;;
22557;SDS011;11445;53.816;8.902;2022-12-20T00:08:58;17.08;;;9.50;;
22557;SDS011;11445;53.816;8.902;2022-12-20T00:11:27;16.98;;;9.88;;
22557;SDS011;11445;53.816;8.902;2022-12-20T00:13:55;17.27;;;9.45;;
22557;SDS011;11445;53.816;8.902;2022-12-20T00:16:23;15.30;;;10.07;;
22557;SDS011;11445;53.816;8.902;2022-12-20T00:18:51;16.60;;;9.73;;
22557;SDS011;11445;53.816;8.902;2022-12-20T00:21:19;16.55;;;9.35;;
22557;SDS011;11445;53.816;8.902;2022-12-20T00:23:47;21.60;;;9.63;;
22557;SDS011;11445;53.816;8.902;2022-12-20T00:26:16;14.52;;;9.20;;
22557;SDS011;11445;53.816;8.902;2022-12-20T00:28:44;16.88;;;10.15;;
22557;SDS011;11445;53.816;8.902;2022-12-20T00:31:12;16.45;;;9.35;;
22557;SDS011;11445;53.816;8.902;2022-12-20T00:33:43;13.27;;;8.77;;
22557;SDS011;11445;53.816;8.902;2022-12-20T00:36:11;16.98;;;9.70;;
22557;SDS011;11445;53.816;8.902;2022-12-20T00:38:38;14.45;;;9.35;;
22557;SDS011;11445;53.816;8.902;2022-12-20T00:41:05;13.85;;;8.88;;
22557;SDS011;11445;53.816;8.902;2022-12-20T00:43:34;18.20;;;9.52;;
22557;SDS011;11445;53.816;8.902;2022-12-20T00:46:02;14.60;;;8.63;;
22557;SDS011;11445;53.816;8.902;2022-12-20T00:48:29;15.13;;;9.60;;
22557;SDS011;11445;53.816;8.902;2022-12-20T00:50:58;17.08;;;8.43;;
22557;SDS011;11445;53.816;8.902;2022-12-20T00:53:26;17.73;;;9.23;;
22557;SDS011;11445;53.816;8.902;2022-12-20T00:55:53;16.05;;;8.75;;
22557;SDS011;11445;53.816;8.902;2022-12-20T00:58:21;16.17;;;9.02;;
22557;SDS011;11445;53.816;8.902;2022-12-20T01:00:49;15.60;;;8.80;;
22557;SDS011;11445;53.816;8.902;2022-12-20T01:03:16;21.48;;;8.93;;
22557;SDS011;11445;53.816;8.902;2022-12-20T01:05:48;16.05;;;8.88;;
22557;SDS011;11445;53.816;8.902;2022-12-20T01:08:17;14.25;;;8.85;;
22557;SDS011;11445;53.816;8.902;2022-12-20T01:10:44;12.98;;;8.70;;
22557;SDS011;11445;53.816;8.902;2022-12-20T01:13:11;12.75;;;8.02;;
22557;SDS011;11445;53.816;8.902;2022-12-20T01:15:38;14.32;;;8.32;;
22557;SDS011;11445;53.816;8.902;2022-12-20T01:18:07;15.55;;;9.25;;
22557;SDS011;11445;53.816;8.902;2022-12-20T01:20:33;13.25;;;8.07;;
22557;SDS011;11445;53.816;8.902;2022-12-20T01:23:00;18.83;;;8.32;;
22557;SDS011;11445;53.816;8.902;2022-12-20T01:25:27;15.73;;;8.23;;
22557;SDS011;11445;53.816;8.902;2022-12-20T01:27:54;14.13;;;8.70;;
22557;SDS011;11445;53.816;8.902;2022-12-20T01:30:21;14.52;;;8.52;;
22557;SDS011;11445;53.816;8.902;2022-12-20T01:32:48;16.85;;;8.23;;
22557;SDS011;11445;53.816;8.902;2022-12-20T01:35:17;21.35;;;9.00;;
22557;SDS011;11445;53.816;8.902;2022-12-20T01:37:44;15.05;;;8.30;;
22557;SDS011;11445;53.816;8.902;2022-12-20T01:40:11;13.30;;;8.05;;
22557;SDS011;11445;53.816;8.902;2022-12-20T01:42:38;13.43;;;7.88;;
22557;SDS011;11445;53.816;8.902;2022-12-20T01:45:07;16.02;;;8.23;;
22557;SDS011;11445;53.816;8.902;2022-12-20T01:47:40;13.20;;;8.07;;
22557;SDS011;11445;53.816;8.902;2022-12-20T01:50:07;12.63;;;8.32;;
22557;SDS011;11445;53.816;8.902;2022-12-20T01:52:37;13.90;;;8.23;;
22557;SDS011;11445;53.816;8.902;2022-12-20T01:55:08;14.00;;;8.40;;
22557;SDS011;11445;53.816;8.902;2022-12-20T01:57:39;14.05;;;7.60;;
22557;SDS011;11445;53.816;8.902;2022-12-20T02:00:11;14.37;;;8.10;;
22557;SDS011;11445;53.816;8.902;2022-12-20T02:02:38;18.20;;;7.85;;
22557;SDS011;11445;53.816;8.902;2022-12-20T02:05:06;18.73;;;8.32;;
22557;SDS011;11445;53.816;8.902;2022-12-20T02:07:35;13.55;;;8.00;;
22557;SDS011;11445;53.816;8.902;2022-12-20T02:10:04;10.23;;;7.65;;
22557;SDS011;11445;53.816;8.902;2022-12-20T02:12:33;14.88;;;7.68;;
22557;SDS011;11445;53.816;8.902;2022-12-20T02:15:10;13.70;;;7.53;;
22557;SDS011;11445;53.816;8.902;2022-12-20T02:18:03;11.37;;;7.63;;
22557;SDS011;11445;53.816;8.902;2022-12-20T02:26:49;13.30;;;8.05;;
22557;SDS011;11445;53.816;8.902;2022-12-20T02:29:36;12.52;;;8.43;;
22557;SDS011;11445;53.816;8.902;2022-12-20T02:32:07;13.57;;;7.53;;
22557;SDS011;11445;53.816;8.902;2022-12-20T02:34:42;14.70;;;7.68;;
22557;SDS011;11445;53.816;8.902;2022-12-20T02:37:09;11.65;;;7.60;;
22557;SDS011;11445;53.816;8.902;2022-12-20T02:39:38;13.65;;;7.65;;
22557;SDS011;11445;53.816;8.902;2022-12-20T02:42:08;10.05;;;6.70;;
22557;SDS011;11445;53.816;8.902;2022-12-20T02:44:37;12.40;;;7.15;;
22557;SDS011;11445;53.816;8.902;2022-12-20T02:47:28;14.23;;;7.22;;
22557;SDS011;11445;53.816;8.902;2022-12-20T02:49:58;9.38;;;7.18;;
22557;SDS011;11445;53.816;8.902;2022-12-20T02:52:26;9.82;;;6.50;;
22557;SDS011;11445;53.816;8.902;2022-12-20T02:54:55;10.63;;;7.15;;
22557;SDS011;11445;53.816;8.902;2022-12-20T02:57:24;11.43;;;6.65;;
22557;SDS011;11445;53.816;8.902;2022-12-20T02:59:56;12.90;;;7.03;;
22557;SDS011;11445;53.816;8.902;2022-12-20T03:02:28;9.20;;;6.78;;
22557;SDS011;11445;53.816;8.902;2022-12-20T03:05:18;11.23;;;6.63;;
22557;SDS011;11445;53.816;8.902;2022-12-20T03:07:47;14.25;;;6.57;;
22557;SDS011;11445;53.816;8.902;2022-12-20T03:10:14;14.43;;;7.22;;
22557;SDS011;11445;53.816;8.902;2022-12-20T03:12:41;9.07;;;6.85;;
22557;SDS011;11445;53.816;8.902;2022-12-20T03:15:09;10.18;;;6.15;;
22557;SDS011;11445;53.816;8.902;2022-12-20T03:17:37;11.68;;;6.82;;
22557;SDS011;11445;53.816;8.902;2022-12-20T03:20:05;12.13;;;6.38;;
22557;SDS011;11445;53.816;8.902;2022-12-20T03:22:35;10.98;;;7.20;;
22557;SDS011;11445;53.816;8.902;2022-12-20T03:25:02;9.68;;;6.80;;
22557;SDS011;11445;53.816;8.902;2022-12-20T03:27:30;9.60;;;6.75;;
22557;SDS011;11445;53.816;8.902;2022-12-20T03:29:57;11.80;;;6.72;;
22557;SDS011;11445;53.816;8.902;2022-12-20T03:32:24;11.35;;;6.65;;
22557;SDS011;11445;53.816;8.902;2022-12-20T03:34:52;11.00;;;6.45;;
22557;SDS011;11445;53.816;8.902;2022-12-20T03:37:19;9.38;;;6.38;;
22557;SDS011;11445;53.816;8.902;2022-12-20T03:39:47;9.55;;;6.53;;
22557;SDS011;11445;53.816;8.902;2022-12-20T03:42:14;11.30;;;6.50;;
22557;SDS011;11445;53.816;8.902;2022-12-20T03:44:40;9.13;;;6.45;;
22557;SDS011;11445;53.816;8.902;2022-12-20T03:47:08;14.20;;;6.75;;
22557;SDS011;11445;53.816;8.902;2022-12-20T03:49:35;9.20;;;6.43;;
22557;SDS011;11445;53.816;8.902;2022-12-20T03:52:03;16.13;;;6.90;;
22557;SDS011;11445;53.816;8.902;2022-12-20T03:54:30;7.10;;;6.05;;
22557;SDS011;11445;53.816;8.902;2022-12-20T03:56:57;11.15;;;6.47;;
22557;SDS011;11445;53.816;8.902;2022-12-20T03:59:24;11.65;;;6.10;;
22557;SDS011;11445;53.816;8.902;2022-12-20T04:01:51;13.25;;;6.20;;
22557;SDS011;11445;53.816;8.902;2022-12-20T04:04:18;10.27;;;6.47;;
22557;SDS011;11445;53.816;8.902;2022-12-20T04:06:45;10.05;;;6.15;;
22557;SDS011;11445;53.816;8.902;2022-12-20T04:09:13;11.15;;;6.60;;
22557;SDS011;11445;53.816;8.902;2022-12-20T04:11:41;13.15;;;5.75;;
22557;SDS011;11445;53.816;8.902;2022-12-20T04:14:08;8.73;;;5.80;;
22557;SDS011;11445;53.816;8.902;2022-12-20T04:16:35;9.38;;;5.95;;
22557;SDS011;11445;53.816;8.902;2022-12-20T04:19:02;8.23;;;5.70;;
22557;SDS011;11445;53.816;8.902;2022-12-20T04:21:30;9.63;;;5.93;;
22557;SDS011;11445;53.816;8.902;2022-12-20T04:23:59;11.07;;;6.45;;
22557;SDS011;11445;53.816;8.902;2022-12-20T04:26:28;10.70;;;6.20;;
22557;SDS011;11445;53.816;8.902;2022-12-20T04:28:56;11.25;;;6.22;;
22557;SDS011;11445;53.816;8.902;2022-12-20T04:31:23;9.63;;;6.60;;
22557;SDS011;11445;53.816;8.902;2022-12-20T04:33:50;9.63;;;6.10;;
22557;SDS011;11445;53.816;8.902;2022-12-20T04:36:17;7.43;;;6.18;;
22557;SDS011;11445;53.816;8.902;2022-12-20T04:38:44;9.85;;;5.72;;
22557;SDS011;11445;53.816;8.902;2022-12-20T04:41:11;12.15;;;7.05;;
22557;SDS011;11445;53.816;8.902;2022-12-20T04:43:48;11.32;;;6.22;;
22557;SDS011;11445;53.816;8.902;2022-12-20T04:46:15;14.93;;;6.80;;
22557;SDS011;11445;53.816;8.902;2022-12-20T04:48:43;10.93;;;6.72;;
22557;SDS011;11445;53.816;8.902;2022-12-20T04:51:10;10.45;;;6.68;;
22557;SDS011;11445;53.816;8.902;2022-12-20T04:53:37;11.73;;;6.70;;
22557;SDS011;11445;53.816;8.902;2022-12-20T04:56:12;11.75;;;7.00;;
22557;SDS011;11445;53.816;8.902;2022-12-20T04:58:40;11.38;;;6.97;;
22557;SDS011;11445;53.816;8.902;2022-12-20T05:01:09;13.00;;;6.55;;
22557;SDS011;11445;53.816;8.902;2022-12-20T05:03:36;11.45;;;7.25;;
22557;SDS011;11445;53.816;8.902;2022-12-20T05:06:03;14.70;;;7.07;;
22557;SDS011;11445;53.816;8.902;2022-12-20T05:08:31;12.13;;;7.22;;
22557;SDS011;11445;53.816;8.902;2022-12-20T05:10:58;11.80;;;7.22;;
22557;SDS011;11445;53.816;8.902;2022-12-20T05:13:26;11.48;;;7.38;;
22557;SDS011;11445;53.816;8.902;2022-12-20T05:15:53;11.18;;;7.80;;
22557;SDS011;11445;53.816;8.902;2022-12-20T05:18:23;10.05;;;7.43;;
22557;SDS011;11445;53.816;8.902;2022-12-20T05:20:53;13.40;;;7.50;;
22557;SDS011;11445;53.816;8.902;2022-12-20T05:23:35;10.23;;;7.25;;
22557;SDS011;11445;53.816;8.902;2022-12-20T05:26:20;14.40;;;7.38;;
22557;SDS011;11445;53.816;8.902;2022-12-20T05:28:49;10.82;;;7.22;;
22557;SDS011;11445;53.816;8.902;2022-12-20T05:31:16;10.10;;;7.35;;
22557;SDS011;11445;53.816;8.902;2022-12-20T05:33:45;12.75;;;7.32;;
22557;SDS011;11445;53.816;8.902;2022-12-20T05:36:12;9.57;;;6.90;;
22557;SDS011;11445;53.816;8.902;2022-12-20T05:38:39;10.40;;;6.97;;
22557;SDS011;11445;53.816;8.902;2022-12-20T05:41:06;11.50;;;7.43;;
22557;SDS011;11445;53.816;8.902;2022-12-20T05:43:33;14.10;;;7.03;;
22557;SDS011;11445;53.816;8.902;2022-12-20T05:46:00;13.82;;;7.22;;
22557;SDS011;11445;53.816;8.902;2022-12-20T05:48:27;10.35;;;7.00;;
22557;SDS011;11445;53.816;8.902;2022-12-20T05:50:55;13.05;;;7.13;;
22557;SDS011;11445;53.816;8.902;2022-12-20T05:53:22;11.00;;;7.28;;
22557;SDS011;11445;53.816;8.902;2022-12-20T05:55:50;12.15;;;7.35;;
22557;SDS011;11445;53.816;8.902;2022-12-20T05:58:18;10.10;;;6.97;;
22557;SDS011;11445;53.816;8.902;2022-12-20T06:00:46;13.43;;;7.85;;
22557;SDS011;11445;53.816;8.902;2022-12-20T06:03:13;9.77;;;6.80;;
22557;SDS011;11445;53.816;8.902;2022-12-20T06:05:41;12.95;;;7.47;;
22557;SDS011;11445;53.816;8.902;2022-12-20T06:08:10;12.55;;;8.00;;
22557;SDS011;11445;53.816;8.902;2022-12-20T06:10:38;11.23;;;7.53;;
22557;SDS011;11445;53.816;8.902;2022-12-20T06:13:07;11.43;;;7.40;;
22557;SDS011;11445;53.816;8.902;2022-12-20T06:15:34;12.48;;;7.68;;
22557;SDS011;11445;53.816;8.902;2022-12-20T06:18:02;11.15;;;6.45;;
22557;SDS011;11445;53.816;8.902;2022-12-20T06:20:30;10.70;;;7.40;;
22557;SDS011;11445;53.816;8.902;2022-12-20T06:22:57;9.27;;;6.97;;
22557;SDS011;11445;53.816;8.902;2022-12-20T06:25:25;10.73;;;6.70;;
22557;SDS011;11445;53.816;8.902;2022-12-20T06:27:52;12.35;;;7.68;;
22557;SDS011;11445;53.816;8.902;2022-12-20T06:30:20;10.07;;;7.18;;
22557;SDS011;11445;53.816;8.902;2022-12-20T06:32:47;11.85;;;7.68;;
22557;SDS011;11445;53.816;8.902;2022-12-20T06:35:14;12.50;;;7.07;;
22557;SDS011;11445;53.816;8.902;2022-12-20T06:37:41;9.25;;;6.50;;
22557;SDS011;11445;53.816;8.902;2022-12-20T06:40:08;12.98;;;7.78;;
22557;SDS011;11445;53.816;8.902;2022-12-20T06:42:39;11.25;;;7.28;;
22557;SDS011;11445;53.816;8.902;2022-12-20T06:45:06;12.27;;;7.28;;
22557;SDS011;11445;53.816;8.902;2022-12-20T06:47:34;12.90;;;7.57;;
22557;SDS011;11445;53.816;8.902;2022-12-20T06:50:02;13.63;;;8.15;;
22557;SDS011;11445;53.816;8.902;2022-12-20T06:52:29;13.68;;;8.70;;
22557;SDS011;11445;53.816;8.902;2022-12-20T06:54:56;13.40;;;8.57;;
22557;SDS011;11445;53.816;8.902;2022-12-20T06:57:23;14.93;;;8.75;;
22557;SDS011;11445;53.816;8.902;2022-12-20T06:59:52;17.48;;;9.27;;
22557;SDS011;11445;53.816;8.902;2022-12-20T07:02:19;17.33;;;9.70;;
22557;SDS011;11445;53.816;8.902;2022-12-20T07:04:46;11.18;;;8.90;;
22557;SDS011;11445;53.816;8.902;2022-12-20T07:07:13;15.65;;;9.05;;
22557;SDS011;11445;53.816;8.902;2022-12-20T07:09:41;13.60;;;9.70;;
22557;SDS011;11445;53.816;8.902;2022-12-20T07:12:08;17.52;;;10.07;;
22557;SDS011;11445;53.816;8.902;2022-12-20T07:14:36;14.43;;;10.18;;
22557;SDS011;11445;53.816;8.902;2022-12-20T07:17:04;14.43;;;10.45;;
22557;SDS011;11445;53.816;8.902;2022-12-20T07:19:32;14.05;;;10.02;;
22557;SDS011;11445;53.816;8.902;2022-12-20T07:22:00;19.38;;;10.68;;
22557;SDS011;11445;53.816;8.902;2022-12-20T07:24:27;16.67;;;10.70;;
22557;SDS011;11445;53.816;8.902;2022-12-20T07:26:54;19.08;;;11.35;;
22557;SDS011;11445;53.816;8.902;2022-12-20T07:29:21;16.05;;;11.25;;
22557;SDS011;11445;53.816;8.902;2022-12-20T07:31:48;19.42;;;11.07;;
22557;SDS011;11445;53.816;8.902;2022-12-20T07:34:16;17.63;;;11.10;;
22557;SDS011;11445;53.816;8.902;2022-12-20T07:36:44;15.32;;;11.18;;
22557;SDS011;11445;53.816;8.902;2022-12-20T07:39:11;17.20;;;10.80;;
22557;SDS011;11445;53.816;8.902;2022-12-20T07:41:38;13.52;;;10.15;;
22557;SDS011;11445;53.816;8.902;2022-12-20T07:44:05;16.92;;;11.73;;
22557;SDS011;11445;53.816;8.902;2022-12-20T07:46:32;18.20;;;11.00;;
22557;SDS011;11445;53.816;8.902;2022-12-20T07:48:59;19.92;;;11.98;;
22557;SDS011;11445;53.816;8.902;2022-12-20T07:51:28;16.98;;;10.80;;
22557;SDS011;11445;53.816;8.902;2022-12-20T07:53:59;17.52;;;11.73;;
22557;SDS011;11445;53.816;8.902;2022-12-20T07:56:30;15.35;;;11.02;;
22557;SDS011;11445;53.816;8.902;2022-12-20T07:59:00;17.73;;;12.00;;
22557;SDS011;11445;53.816;8.902;2022-12-20T08:01:28;18.08;;;11.20;;
22557;SDS011;11445;53.816;8.902;2022-12-20T08:03:57;20.00;;;10.48;;
22557;SDS011;11445;53.816;8.902;2022-12-20T08:06:31;13.27;;;10.07;;
22557;SDS011;11445;53.816;8.902;2022-12-20T08:08:59;16.15;;;10.02;;
22557;SDS011;11445;53.816;8.902;2022-12-20T08:11:29;15.68;;;10.23;;
22557;SDS011;11445;53.816;8.902;2022-12-20T08:13:59;14.60;;;10.20;;
22557;SDS011;11445;53.816;8.902;2022-12-20T08:16:27;19.85;;;10.10;;
22557;SDS011;11445;53.816;8.902;2022-12-20T08:18:55;17.65;;;10.18;;
22557;SDS011;11445;53.816;8.902;2022-12-20T08:21:22;20.95;;;9.23;;
22557;SDS011;11445;53.816;8.902;2022-12-20T08:23:51;13.98;;;8.70;;
22557;SDS011;11445;53.816;8.902;2022-12-20T08:26:17;14.38;;;8.90;;
22557;SDS011;11445;53.816;8.902;2022-12-20T08:28:44;12.88;;;8.30;;
22557;SDS011;11445;53.816;8.902;2022-12-20T08:31:12;11.13;;;8.20;;
22557;SDS011;11445;53.816;8.902;2022-12-20T08:33:39;13.75;;;7.93;;
22557;SDS011;11445;53.816;8.902;2022-12-20T08:36:07;12.10;;;7.40;;
22557;SDS011;11445;53.816;8.902;2022-12-20T08:38:35;13.55;;;7.50;;
22557;SDS011;11445;53.816;8.902;2022-12-20T08:41:04;10.40;;;7.72;;
22557;SDS011;11445;53.816;8.902;2022-12-20T08:43:33;10.07;;;7.15;;
22557;SDS011;11445;53.816;8.902;2022-12-20T08:46:00;10.02;;;6.78;;
22557;SDS011;11445;53.816;8.902;2022-12-20T08:48:27;16.60;;;7.78;;
22557;SDS011;11445;53.816;8.902;2022-12-20T08:50:54;14.60;;;7.20;;
22557;SDS011;11445;53.816;8.902;2022-12-20T08:53:22;14.40;;;8.25;;
22557;SDS011;11445;53.816;8.902;2022-12-20T08:55:49;10.57;;;6.95;;
22557;SDS011;11445;53.816;8.902;2022-12-20T08:58:18;12.15;;;7.20;;
22557;SDS011;11445;53.816;8.902;2022-12-20T09:00:45;12.32;;;7.93;;
22557;SDS011;11445;53.816;8.902;2022-12-20T09:03:13;12.25;;;7.78;;
22557;SDS011;11445;53.816;8.902;2022-12-20T09:05:43;14.68;;;7.93;;
22557;SDS011;11445;53.816;8.902;2022-12-20T09:08:11;11.55;;;8.30;;
22557;SDS011;11445;53.816;8.902;2022-12-20T09:10:39;17.55;;;8.45;;
22557;SDS011;11445;53.816;8.902;2022-12-20T09:13:06;13.43;;;8.75;;
22557;SDS011;11445;53.816;8.902;2022-12-20T09:15:35;13.93;;;9.02;;
22557;SDS011;11445;53.816;8.902;2022-12-20T09:18:02;13.98;;;8.77;;
22557;SDS011;11445;53.816;8.902;2022-12-20T09:20:30;13.32;;;8.70;;
22557;SDS011;11445;53.816;8.902;2022-12-20T09:22:57;16.27;;;9.38;;
22557;SDS011;11445;53.816;8.902;2022-12-20T09:25:24;16.13;;;9.52;;
22557;SDS011;11445;53.816;8.902;2022-12-20T09:27:51;28.70;;;10.57;;
22557;SDS011;11445;53.816;8.902;2022-12-20T09:30:19;18.02;;;9.80;;
22557;SDS011;11445;53.816;8.902;2022-12-20T09:32:47;19.25;;;10.25;;
22557;SDS011;11445;53.816;8.902;2022-12-20T09:35:14;15.35;;;9.80;;
22557;SDS011;11445;53.816;8.902;2022-12-20T09:37:41;18.95;;;9.93;;
22557;SDS011;11445;53.816;8.902;2022-12-20T09:40:09;13.93;;;10.18;;
22557;SDS011;11445;53.816;8.902;2022-12-20T09:42:44;16.30;;;10.07;;
22557;SDS011;11445;53.816;8.902;2022-12-20T09:45:15;17.95;;;10.77;;
22557;SDS011;11445;53.816;8.902;2022-12-20T09:47:51;24.35;;;10.48;;
22557;SDS011;11445;53.816;8.902;2022-12-20T09:50:18;16.20;;;10.77;;
22557;SDS011;11445;53.816;8.902;2022-12-20T09:52:49;20.98;;;11.13;;
22557;SDS011;11445;53.816;8.902;2022-12-20T09:55:25;17.95;;;10.30;;
22557;SDS011;11445;53.816;8.902;2022-12-20T09:58:03;23.70;;;11.03;;
22557;SDS011;11445;53.816;8.902;2022-12-20T10:00:48;21.38;;;11.10;;
22557;SDS011;11445;53.816;8.902;2022-12-20T10:03:19;18.08;;;10.90;;
22557;SDS011;11445;53.816;8.902;2022-12-20T10:05:49;18.10;;;11.68;;
22557;SDS011;11445;53.816;8.902;2022-12-20T10:08:36;26.20;;;11.93;;
22557;SDS011;11445;53.816;8.902;2022-12-20T10:11:12;23.65;;;11.75;;
22557;SDS011;11445;53.816;8.902;2022-12-20T10:13:53;18.63;;;12.25;;
22557;SDS011;11445;53.816;8.902;2022-12-20T10:16:31;19.95;;;12.88;;
22557;SDS011;11445;53.816;8.902;2022-12-20T10:19:20;22.08;;;12.52;;
22557;SDS011;11445;53.816;8.902;2022-12-20T10:22:01;18.75;;;11.48;;
22557;SDS011;11445;53.816;8.902;2022-12-20T10:24:34;22.02;;;11.95;;
22557;SDS011;11445;53.816;8.902;2022-12-20T10:27:01;18.77;;;11.88;;
22557;SDS011;11445;53.816;8.902;2022-12-20T10:29:37;17.83;;;11.88;;
22557;SDS011;11445;53.816;8.902;2022-12-20T10:32:09;19.90;;;11.52;;
22557;SDS011;11445;53.816;8.902;2022-12-20T10:37:10;18.30;;;10.60;;
22557;SDS011;11445;53.816;8.902;2022-12-20T10:39:39;18.35;;;11.25;;
22557;SDS011;11445;53.816;8.902;2022-12-20T10:42:18;17.85;;;10.90;;
22557;SDS011;11445;53.816;8.902;2022-12-20T10:44:54;17.23;;;11.65;;
22557;SDS011;11445;53.816;8.902;2022-12-20T10:47:24;21.80;;;11.15;;
22557;SDS011;11445;53.816;8.902;2022-12-20T10:50:14;19.35;;;11.27;;
22557;SDS011;11445;53.816;8.902;2022-12-20T10:52:43;16.27;;;11.00;;
22557;SDS011;11445;53.816;8.902;2022-12-20T10:58:00;16.45;;;10.20;;
22557;SDS011;11445;53.816;8.902;2022-12-20T11:00:31;13.30;;;9.73;;
22557;SDS011;11445;53.816;8.902;2022-12-20T11:03:09;21.02;;;9.75;;
22557;SDS011;11445;53.816;8.902;2022-12-20T11:05:40;16.83;;;9.90;;
22557;SDS011;11445;53.816;8.902;2022-12-20T11:08:17;19.75;;;10.68;;
22557;SDS011;11445;53.816;8.902;2022-12-20T11:10:46;19.52;;;10.10;;
22557;SDS011;11445;53.816;8.902;2022-12-20T11:13:20;16.10;;;10.10;;
22557;SDS011;11445;53.816;8.902;2022-12-20T11:15:50;21.95;;;11.27;;
22557;SDS011;11445;53.816;8.902;2022-12-20T11:18:23;16.65;;;9.57;;
22557;SDS011;11445;53.816;8.902;2022-12-20T11:21:07;14.70;;;9.68;;
22557;SDS011;11445;53.816;8.902;2022-12-20T11:23:42;14.80;;;9.18;;
22557;SDS011;11445;53.816;8.902;2022-12-20T11:26:19;15.65;;;9.35;;
22557;SDS011;11445;53.816;8.902;2022-12-20T11:28:58;16.58;;;10.13;;
22557;SDS011;11445;53.816;8.902;2022-12-20T11:31:36;18.67;;;10.15;;
22557;SDS011;11445;53.816;8.902;2022-12-20T11:34:14;18.13;;;9.90;;
22557;SDS011;11445;53.816;8.902;2022-12-20T11:36:58;14.68;;;9.00;;
22557;SDS011;11445;53.816;8.902;2022-12-20T11:39:38;17.83;;;9.30;;
22557;SDS011;11445;53.816;8.902;2022-12-20T11:42:16;15.40;;;8.45;;
22557;SDS011;11445;53.816;8.902;2022-12-20T11:44:52;12.93;;;8.38;;
22557;SDS011;11445;53.816;8.902;2022-12-20T11:47:28;12.10;;;8.32;;
22557;SDS011;11445;53.816;8.902;2022-12-20T11:50:19;12.98;;;8.50;;
22557;SDS011;11445;53.816;8.902;2022-12-20T11:53:17;13.88;;;7.82;;
22557;SDS011;11445;53.816;8.902;2022-12-20T11:55:51;13.13;;;6.60;;
22557;SDS011;11445;53.816;8.902;2022-12-20T11:58:22;13.00;;;6.72;;
22557;SDS011;11445;53.816;8.902;2022-12-20T12:00:55;9.13;;;6.50;;
22557;SDS011;11445;53.816;8.902;2022-12-20T12:03:27;9.02;;;5.95;;
22557;SDS011;11445;53.816;8.902;2022-12-20T12:05:59;10.25;;;5.90;;
22557;SDS011;11445;53.816;8.902;2022-12-20T12:08:33;12.85;;;5.72;;
22557;SDS011;11445;53.816;8.902;2022-12-20T12:11:07;11.00;;;5.55;;
22557;SDS011;11445;53.816;8.902;2022-12-20T12:13:40;9.90;;;5.60;;
22557;SDS011;11445;53.816;8.902;2022-12-20T12:16:10;14.20;;;6.00;;
22557;SDS011;11445;53.816;8.902;2022-12-20T12:18:39;13.02;;;5.22;;
22557;SDS011;11445;53.816;8.902;2022-12-20T12:21:08;7.75;;;4.40;;
22557;SDS011;11445;53.816;8.902;2022-12-20T12:23:46;6.65;;;4.43;;
22557;SDS011;11445;53.816;8.902;2022-12-20T12:26:23;7.50;;;4.90;;
22557;SDS011;11445;53.816;8.902;2022-12-20T12:28:53;9.80;;;4.88;;
22557;SDS011;11445;53.816;8.902;2022-12-20T12:31:24;7.40;;;4.25;;
22557;SDS011;11445;53.816;8.902;2022-12-20T12:33:59;9.48;;;4.90;;
22557;SDS011;11445;53.816;8.902;2022-12-20T12:36:38;13.15;;;5.38;;
22557;SDS011;11445;53.816;8.902;2022-12-20T12:39:29;8.25;;;4.63;;
22557;SDS011;11445;53.816;8.902;2022-12-20T12:42:25;6.18;;;4.25;;
22557;SDS011;11445;53.816;8.902;2022-12-20T12:45:19;9.88;;;5.13;;
22557;SDS011;11445;53.816;8.902;2022-12-20T12:47:51;6.55;;;4.75;;
22557;SDS011;11445;53.816;8.902;2022-12-20T12:50:23;5.72;;;4.57;;
22557;SDS011;11445;53.816;8.902;2022-12-20T12:52:53;16.40;;;5.20;;
22557;SDS011;11445;53.816;8.902;2022-12-20T12:55:37;10.05;;;4.70;;
22557;SDS011;11445;53.816;8.902;2022-12-20T13:00:58;7.38;;;5.25;;
22557;SDS011;11445;53.816;8.902;2022-12-20T13:03:42;10.23;;;4.85;;
22557;SDS011;11445;53.816;8.902;2022-12-20T13:09:39;9.30;;;5.32;;
22557;SDS011;11445;53.816;8.902;2022-12-20T13:18:22;9.57;;;5.47;;
22557;SDS011;11445;53.816;8.902;2022-12-20T13:23:43;10.70;;;5.97;;
22557;SDS011;11445;53.816;8.902;2022-12-20T13:29:22;7.40;;;5.72;;
22557;SDS011;11445;53.816;8.902;2022-12-20T13:31:50;11.48;;;6.07;;
22557;SDS011;11445;53.816;8.902;2022-12-20T13:34:35;9.05;;;6.43;;
22557;SDS011;11445;53.816;8.902;2022-12-20T13:39:52;11.77;;;6.78;;
22557;SDS011;11445;53.816;8.902;2022-12-20T13:42:31;11.48;;;6.47;;
22557;SDS011;11445;53.816;8.902;2022-12-20T13:45:03;12.00;;;6.43;;
22557;SDS011;11445;53.816;8.902;2022-12-20T13:50:24;10.80;;;6.82;;
22557;SDS011;11445;53.816;8.902;2022-12-20T13:53:02;11.05;;;6.70;;
22557;SDS011;11445;53.816;8.902;2022-12-20T13:55:32;12.65;;;6.75;;
22557;SDS011;11445;53.816;8.902;2022-12-20T13:58:05;11.93;;;7.47;;
22557;SDS011;11445;53.816;8.902;2022-12-20T14:00:36;11.52;;;7.45;;
22557;SDS011;11445;53.816;8.902;2022-12-20T14:03:04;12.38;;;7.30;;
22557;SDS011;11445;53.816;8.902;2022-12-20T14:05:39;12.57;;;7.47;;
22557;SDS011;11445;53.816;8.902;2022-12-20T14:08:07;14.82;;;7.80;;
22557;SDS011;11445;53.816;8.902;2022-12-20T14:10:38;9.77;;;7.50;;
22557;SDS011;11445;53.816;8.902;2022-12-20T14:13:13;12.68;;;7.97;;
22557;SDS011;11445;53.816;8.902;2022-12-20T14:15:46;10.75;;;7.65;;
22557;SDS011;11445;53.816;8.902;2022-12-20T14:18:15;10.75;;;7.80;;
22557;SDS011;11445;53.816;8.902;2022-12-20T14:20:45;8.85;;;7.50;;
22557;SDS011;11445;53.816;8.902;2022-12-20T14:23:16;11.38;;;7.65;;
22557;SDS011;11445;53.816;8.902;2022-12-20T14:25:45;9.75;;;7.53;;
22557;SDS011;11445;53.816;8.902;2022-12-20T14:28:18;14.38;;;8.05;;
22557;SDS011;11445;53.816;8.902;2022-12-20T14:30:54;10.50;;;7.85;;
22557;SDS011;11445;53.816;8.902;2022-12-20T14:33:25;9.32;;;7.50;;
22557;SDS011;11445;53.816;8.902;2022-12-20T14:35:56;12.05;;;8.35;;
22557;SDS011;11445;53.816;8.902;2022-12-20T14:38:34;13.73;;;8.27;;
22557;SDS011;11445;53.816;8.902;2022-12-20T14:41:01;11.10;;;8.02;;
22557;SDS011;11445;53.816;8.902;2022-12-20T14:43:32;8.65;;;7.57;;
22557;SDS011;11445;53.816;8.902;2022-12-20T14:46:05;13.45;;;8.35;;
22557;SDS011;11445;53.816;8.902;2022-12-20T14:48:34;14.25;;;8.10;;
22557;SDS011;11445;53.816;8.902;2022-12-20T14:51:04;14.90;;;8.77;;
22557;SDS011;11445;53.816;8.902;2022-12-20T14:53:31;9.98;;;8.02;;
22557;SDS011;11445;53.816;8.902;2022-12-20T14:55:59;14.48;;;9.27;;
22557;SDS011;11445;53.816;8.902;2022-12-20T14:58:28;12.70;;;8.40;;
22557;SDS011;11445;53.816;8.902;2022-12-20T15:00:57;11.93;;;8.57;;
22557;SDS011;11445;53.816;8.902;2022-12-20T15:03:25;13.95;;;8.60;;
22557;SDS011;11445;53.816;8.902;2022-12-20T15:05:53;15.45;;;9.85;;
22557;SDS011;11445;53.816;8.902;2022-12-20T15:08:24;16.55;;;9.65;;
22557;SDS011;11445;53.816;8.902;2022-12-20T15:10:56;13.60;;;9.13;;
22557;SDS011;11445;53.816;8.902;2022-12-20T15:13:29;12.68;;;9.73;;
22557;SDS011;11445;53.816;8.902;2022-12-20T15:15:58;15.82;;;9.30;;
22557;SDS011;11445;53.816;8.902;2022-12-20T15:18:26;12.32;;;9.98;;
22557;SDS011;11445;53.816;8.902;2022-12-20T15:20:57;18.45;;;10.27;;
22557;SDS011;11445;53.816;8.902;2022-12-20T15:23:30;13.50;;;9.85;;
22557;SDS011;11445;53.816;8.902;2022-12-20T15:25:58;17.60;;;10.43;;
22557;SDS011;11445;53.816;8.902;2022-12-20T15:28:25;13.18;;;10.38;;